sensor_id;sensor_type;location;lat;lon;timestamp;P1;durP1;ratioP1;P2;durP2;ratioP2
16442;SDS011;8331;51.654;14.376;2023-07-16T00:02:22;3.13;;;2.90;;
16442;SDS011;8331;51.654;14.376;2023-07-16T00:04:49;4.03;;;2.60;;
16442;SDS011;8331;51.654;14.376;2023-07-16T00:07:16;4.33;;;3.23;;
16442;SDS011;8331;51.654;14.376;2023-07-16T00:09:43;2.70;;;2.60;;
16442;SDS011;8331;51.654;14.376;2023-07-16T00:12:10;3.33;;;3.00;;
16442;SDS011;8331;51.654;14.376;2023-07-16T00:14:37;3.80;;;2.97;;
16442;SDS011;8331;51.654;14.376;2023-07-16T00:17:03;4.87;;;3.17;;
16442;SDS011;8331;51.654;14.376;2023-07-16T00:19:30;3.30;;;2.80;;
16442;SDS011;8331;51.654;14.376;2023-07-16T00:21:56;3.40;;;3.17;;
16442;SDS011;8331;51.654;14.376;2023-07-16T00:24:23;4.03;;;3.07;;
16442;SDS011;8331;51.654;14.376;2023-07-16T00:26:50;3.30;;;3.00;;
16442;SDS011;8331;51.654;14.376;2023-07-16T00:29:16;3.00;;;2.80;;
16442;SDS011;8331;51.654;14.376;2023-07-16T00:31:43;3.03;;;2.70;;
16442;SDS011;8331;51.654;14.376;2023-07-16T00:34:11;3.27;;;3.00;;
16442;SDS011;8331;51.654;14.376;2023-07-16T00:36:39;3.53;;;3.23;;
16442;SDS011;8331;51.654;14.376;2023-07-16T00:39:06;3.33;;;3.03;;
16442;SDS011;8331;51.654;14.376;2023-07-16T00:41:33;3.27;;;3.07;;
16442;SDS011;8331;51.654;14.376;2023-07-16T00:43:59;5.70;;;3.20;;
16442;SDS011;8331;51.654;14.376;2023-07-16T00:46:26;3.47;;;3.00;;
16442;SDS011;8331;51.654;14.376;2023-07-16T00:48:53;3.27;;;3.07;;
16442;SDS011;8331;51.654;14.376;2023-07-16T00:51:21;3.40;;;3.10;;
16442;SDS011;8331;51.654;14.376;2023-07-16T00:53:48;4.27;;;3.20;;
16442;SDS011;8331;51.654;14.376;2023-07-16T00:56:16;3.40;;;3.30;;
16442;SDS011;8331;51.654;14.376;2023-07-16T00:58:43;4.03;;;3.73;;
16442;SDS011;8331;51.654;14.376;2023-07-16T01:01:10;3.63;;;3.20;;
16442;SDS011;8331;51.654;14.376;2023-07-16T01:03:37;5.00;;;3.40;;
16442;SDS011;8331;51.654;14.376;2023-07-16T01:06:06;3.63;;;3.33;;
16442;SDS011;8331;51.654;14.376;2023-07-16T01:09:19;5.90;;;3.37;;
16442;SDS011;8331;51.654;14.376;2023-07-16T01:11:26;7.80;;;3.70;;
16442;SDS011;8331;51.654;14.376;2023-07-16T01:13:53;4.77;;;3.23;;
16442;SDS011;8331;51.654;14.376;2023-07-16T01:16:24;7.47;;;3.47;;
16442;SDS011;8331;51.654;14.376;2023-07-16T01:18:51;5.33;;;3.43;;
16442;SDS011;8331;51.654;14.376;2023-07-16T01:21:19;5.77;;;3.20;;
16442;SDS011;8331;51.654;14.376;2023-07-16T01:26:36;4.60;;;3.03;;
16442;SDS011;8331;51.654;14.376;2023-07-16T01:31:32;5.73;;;3.80;;
16442;SDS011;8331;51.654;14.376;2023-07-16T01:34:00;3.60;;;3.13;;
16442;SDS011;8331;51.654;14.376;2023-07-16T01:36:28;7.03;;;3.27;;
16442;SDS011;8331;51.654;14.376;2023-07-16T01:38:55;3.50;;;2.97;;
16442;SDS011;8331;51.654;14.376;2023-07-16T01:41:22;5.07;;;3.37;;
16442;SDS011;8331;51.654;14.376;2023-07-16T01:43:49;4.53;;;3.33;;
16442;SDS011;8331;51.654;14.376;2023-07-16T01:46:15;5.57;;;3.00;;
16442;SDS011;8331;51.654;14.376;2023-07-16T01:48:42;3.40;;;3.10;;
16442;SDS011;8331;51.654;14.376;2023-07-16T01:51:09;4.43;;;2.83;;
16442;SDS011;8331;51.654;14.376;2023-07-16T01:53:37;4.33;;;3.00;;
16442;SDS011;8331;51.654;14.376;2023-07-16T01:56:04;5.97;;;2.60;;
16442;SDS011;8331;51.654;14.376;2023-07-16T01:58:31;4.73;;;2.67;;
16442;SDS011;8331;51.654;14.376;2023-07-16T02:00:58;2.83;;;2.53;;
16442;SDS011;8331;51.654;14.376;2023-07-16T02:03:25;2.70;;;2.50;;
16442;SDS011;8331;51.654;14.376;2023-07-16T02:05:51;2.57;;;2.37;;
16442;SDS011;8331;51.654;14.376;2023-07-16T02:08:18;2.43;;;2.20;;
16442;SDS011;8331;51.654;14.376;2023-07-16T02:10:47;2.20;;;2.07;;
16442;SDS011;8331;51.654;14.376;2023-07-16T02:13:13;3.93;;;1.90;;
16442;SDS011;8331;51.654;14.376;2023-07-16T02:15:40;2.40;;;2.20;;
16442;SDS011;8331;51.654;14.376;2023-07-16T02:18:07;3.80;;;2.23;;
16442;SDS011;8331;51.654;14.376;2023-07-16T02:20:34;1.90;;;1.80;;
16442;SDS011;8331;51.654;14.376;2023-07-16T02:23:01;2.30;;;2.10;;
16442;SDS011;8331;51.654;14.376;2023-07-16T02:25:28;1.90;;;1.80;;
16442;SDS011;8331;51.654;14.376;2023-07-16T02:27:54;2.37;;;1.77;;
16442;SDS011;8331;51.654;14.376;2023-07-16T02:30:21;2.40;;;1.80;;
16442;SDS011;8331;51.654;14.376;2023-07-16T02:32:48;1.70;;;1.60;;
16442;SDS011;8331;51.654;14.376;2023-07-16T02:35:15;1.73;;;1.63;;
16442;SDS011;8331;51.654;14.376;2023-07-16T02:37:41;1.80;;;1.70;;
16442;SDS011;8331;51.654;14.376;2023-07-16T02:40:08;3.37;;;1.70;;
16442;SDS011;8331;51.654;14.376;2023-07-16T02:42:35;1.70;;;1.60;;
16442;SDS011;8331;51.654;14.376;2023-07-16T02:45:01;2.73;;;1.60;;
16442;SDS011;8331;51.654;14.376;2023-07-16T02:47:28;2.60;;;1.63;;
16442;SDS011;8331;51.654;14.376;2023-07-16T02:49:55;1.70;;;1.60;;
16442;SDS011;8331;51.654;14.376;2023-07-16T02:52:21;1.73;;;1.50;;
16442;SDS011;8331;51.654;14.376;2023-07-16T02:54:48;2.07;;;1.50;;
16442;SDS011;8331;51.654;14.376;2023-07-16T02:57:15;1.50;;;1.40;;
16442;SDS011;8331;51.654;14.376;2023-07-16T02:59:42;2.93;;;1.20;;
16442;SDS011;8331;51.654;14.376;2023-07-16T03:02:09;1.63;;;1.53;;
16442;SDS011;8331;51.654;14.376;2023-07-16T03:04:35;1.47;;;1.37;;
16442;SDS011;8331;51.654;14.376;2023-07-16T03:07:02;1.53;;;1.40;;
16442;SDS011;8331;51.654;14.376;2023-07-16T03:09:29;1.37;;;1.30;;
16442;SDS011;8331;51.654;14.376;2023-07-16T03:11:56;1.50;;;1.40;;
16442;SDS011;8331;51.654;14.376;2023-07-16T03:14:22;1.60;;;1.50;;
16442;SDS011;8331;51.654;14.376;2023-07-16T03:16:49;1.20;;;1.20;;
16442;SDS011;8331;51.654;14.376;2023-07-16T03:19:16;1.40;;;1.20;;
16442;SDS011;8331;51.654;14.376;2023-07-16T03:21:42;1.70;;;1.60;;
16442;SDS011;8331;51.654;14.376;2023-07-16T03:24:09;1.00;;;1.00;;
16442;SDS011;8331;51.654;14.376;2023-07-16T03:26:36;1.00;;;1.00;;
16442;SDS011;8331;51.654;14.376;2023-07-16T03:29:03;1.00;;;0.97;;
16442;SDS011;8331;51.654;14.376;2023-07-16T03:31:30;1.23;;;1.23;;
16442;SDS011;8331;51.654;14.376;2023-07-16T03:33:57;1.30;;;1.20;;
16442;SDS011;8331;51.654;14.376;2023-07-16T03:36:27;1.87;;;1.00;;
16442;SDS011;8331;51.654;14.376;2023-07-16T03:38:54;1.40;;;1.30;;
16442;SDS011;8331;51.654;14.376;2023-07-16T03:41:20;1.30;;;1.20;;
16442;SDS011;8331;51.654;14.376;2023-07-16T03:43:47;1.23;;;1.20;;
16442;SDS011;8331;51.654;14.376;2023-07-16T03:46:19;1.47;;;1.37;;
16442;SDS011;8331;51.654;14.376;2023-07-16T03:48:46;1.40;;;1.30;;
16442;SDS011;8331;51.654;14.376;2023-07-16T03:51:13;1.40;;;1.30;;
16442;SDS011;8331;51.654;14.376;2023-07-16T03:53:39;1.40;;;1.40;;
16442;SDS011;8331;51.654;14.376;2023-07-16T03:56:06;1.50;;;1.40;;
16442;SDS011;8331;51.654;14.376;2023-07-16T03:58:34;1.63;;;1.50;;
16442;SDS011;8331;51.654;14.376;2023-07-16T04:01:04;2.63;;;1.50;;
16442;SDS011;8331;51.654;14.376;2023-07-16T04:03:30;1.83;;;1.70;;
16442;SDS011;8331;51.654;14.376;2023-07-16T04:06:04;1.70;;;1.60;;
16442;SDS011;8331;51.654;14.376;2023-07-16T04:08:31;2.77;;;2.03;;
16442;SDS011;8331;51.654;14.376;2023-07-16T04:10:58;1.93;;;1.83;;
16442;SDS011;8331;51.654;14.376;2023-07-16T04:13:24;2.20;;;2.00;;
16442;SDS011;8331;51.654;14.376;2023-07-16T04:15:51;2.65;;;2.15;;
16442;SDS011;8331;51.654;14.376;2023-07-16T04:18:20;2.90;;;2.07;;
16442;SDS011;8331;51.654;14.376;2023-07-16T04:20:47;4.00;;;1.90;;
16442;SDS011;8331;51.654;14.376;2023-07-16T04:23:13;2.37;;;2.27;;
16442;SDS011;8331;51.654;14.376;2023-07-16T04:25:40;2.50;;;2.30;;
16442;SDS011;8331;51.654;14.376;2023-07-16T04:28:07;4.33;;;2.33;;
16442;SDS011;8331;51.654;14.376;2023-07-16T04:30:33;2.80;;;2.20;;
16442;SDS011;8331;51.654;14.376;2023-07-16T04:33:00;3.23;;;2.27;;
16442;SDS011;8331;51.654;14.376;2023-07-16T04:35:27;3.10;;;2.23;;
16442;SDS011;8331;51.654;14.376;2023-07-16T04:37:53;2.30;;;2.17;;
16442;SDS011;8331;51.654;14.376;2023-07-16T04:40:20;2.13;;;1.80;;
16442;SDS011;8331;51.654;14.376;2023-07-16T04:42:46;2.57;;;2.37;;
16442;SDS011;8331;51.654;14.376;2023-07-16T04:45:13;2.23;;;1.90;;
16442;SDS011;8331;51.654;14.376;2023-07-16T04:47:40;2.60;;;2.20;;
16442;SDS011;8331;51.654;14.376;2023-07-16T04:50:07;1.90;;;1.80;;
16442;SDS011;8331;51.654;14.376;2023-07-16T04:52:34;2.70;;;2.50;;
16442;SDS011;8331;51.654;14.376;2023-07-16T04:55:00;4.70;;;2.30;;
16442;SDS011;8331;51.654;14.376;2023-07-16T04:57:27;3.70;;;2.60;;
16442;SDS011;8331;51.654;14.376;2023-07-16T04:59:53;2.23;;;2.13;;
16442;SDS011;8331;51.654;14.376;2023-07-16T05:02:20;3.77;;;2.37;;
16442;SDS011;8331;51.654;14.376;2023-07-16T05:04:47;2.60;;;2.40;;
16442;SDS011;8331;51.654;14.376;2023-07-16T05:07:16;2.60;;;2.10;;
16442;SDS011;8331;51.654;14.376;2023-07-16T05:09:43;3.40;;;2.37;;
16442;SDS011;8331;51.654;14.376;2023-07-16T05:12:10;3.43;;;2.13;;
16442;SDS011;8331;51.654;14.376;2023-07-16T05:14:46;2.60;;;2.40;;
16442;SDS011;8331;51.654;14.376;2023-07-16T05:17:13;2.70;;;2.17;;
16442;SDS011;8331;51.654;14.376;2023-07-16T05:19:41;3.40;;;2.30;;
16442;SDS011;8331;51.654;14.376;2023-07-16T05:22:08;2.30;;;2.10;;
16442;SDS011;8331;51.654;14.376;2023-07-16T05:24:35;2.80;;;2.43;;
16442;SDS011;8331;51.654;14.376;2023-07-16T05:27:02;2.60;;;2.37;;
16442;SDS011;8331;51.654;14.376;2023-07-16T05:29:28;2.00;;;1.90;;
16442;SDS011;8331;51.654;14.376;2023-07-16T05:31:55;3.33;;;2.23;;
16442;SDS011;8331;51.654;14.376;2023-07-16T05:34:22;3.23;;;2.40;;
16442;SDS011;8331;51.654;14.376;2023-07-16T05:36:48;2.53;;;2.33;;
16442;SDS011;8331;51.654;14.376;2023-07-16T05:39:15;2.83;;;2.50;;
16442;SDS011;8331;51.654;14.376;2023-07-16T05:41:42;3.00;;;2.10;;
16442;SDS011;8331;51.654;14.376;2023-07-16T05:44:09;2.47;;;2.27;;
16442;SDS011;8331;51.654;14.376;2023-07-16T05:46:36;2.60;;;2.40;;
16442;SDS011;8331;51.654;14.376;2023-07-16T05:49:03;2.30;;;2.20;;
16442;SDS011;8331;51.654;14.376;2023-07-16T05:51:29;2.30;;;2.20;;
16442;SDS011;8331;51.654;14.376;2023-07-16T05:53:56;2.63;;;2.43;;
16442;SDS011;8331;51.654;14.376;2023-07-16T05:56:23;3.50;;;2.50;;
16442;SDS011;8331;51.654;14.376;2023-07-16T05:58:50;2.43;;;2.20;;
16442;SDS011;8331;51.654;14.376;2023-07-16T06:01:16;2.87;;;2.60;;
16442;SDS011;8331;51.654;14.376;2023-07-16T06:03:43;2.70;;;2.50;;
16442;SDS011;8331;51.654;14.376;2023-07-16T06:06:09;3.35;;;2.70;;
16442;SDS011;8331;51.654;14.376;2023-07-16T06:08:36;2.43;;;2.20;;
16442;SDS011;8331;51.654;14.376;2023-07-16T06:11:03;2.83;;;2.63;;
16442;SDS011;8331;51.654;14.376;2023-07-16T06:13:30;2.80;;;2.60;;
16442;SDS011;8331;51.654;14.376;2023-07-16T06:15:57;2.73;;;2.53;;
16442;SDS011;8331;51.654;14.376;2023-07-16T06:18:28;2.73;;;2.53;;
16442;SDS011;8331;51.654;14.376;2023-07-16T06:20:54;2.80;;;2.60;;
16442;SDS011;8331;51.654;14.376;2023-07-16T06:23:21;2.80;;;2.57;;
16442;SDS011;8331;51.654;14.376;2023-07-16T06:25:48;3.90;;;2.80;;
16442;SDS011;8331;51.654;14.376;2023-07-16T06:28:16;2.80;;;2.70;;
16442;SDS011;8331;51.654;14.376;2023-07-16T06:30:42;2.77;;;2.60;;
16442;SDS011;8331;51.654;14.376;2023-07-16T06:33:09;2.80;;;2.60;;
16442;SDS011;8331;51.654;14.376;2023-07-16T06:35:36;2.67;;;2.47;;
16442;SDS011;8331;51.654;14.376;2023-07-16T06:38:02;2.60;;;2.50;;
16442;SDS011;8331;51.654;14.376;2023-07-16T06:40:29;3.03;;;2.83;;
16442;SDS011;8331;51.654;14.376;2023-07-16T06:42:56;2.70;;;2.57;;
16442;SDS011;8331;51.654;14.376;2023-07-16T06:45:23;2.83;;;2.63;;
16442;SDS011;8331;51.654;14.376;2023-07-16T06:47:50;2.87;;;2.67;;
16442;SDS011;8331;51.654;14.376;2023-07-16T06:50:17;2.77;;;2.57;;
16442;SDS011;8331;51.654;14.376;2023-07-16T06:52:43;2.73;;;2.53;;
16442;SDS011;8331;51.654;14.376;2023-07-16T06:55:10;2.63;;;2.30;;
16442;SDS011;8331;51.654;14.376;2023-07-16T06:57:37;2.80;;;2.60;;
16442;SDS011;8331;51.654;14.376;2023-07-16T07:00:04;3.77;;;2.90;;
16442;SDS011;8331;51.654;14.376;2023-07-16T07:02:31;2.87;;;2.67;;
16442;SDS011;8331;51.654;14.376;2023-07-16T07:04:57;3.40;;;3.10;;
16442;SDS011;8331;51.654;14.376;2023-07-16T07:07:25;3.20;;;3.00;;
16442;SDS011;8331;51.654;14.376;2023-07-16T07:09:52;3.27;;;2.87;;
16442;SDS011;8331;51.654;14.376;2023-07-16T07:12:18;3.30;;;3.00;;
16442;SDS011;8331;51.654;14.376;2023-07-16T07:14:46;2.87;;;2.67;;
16442;SDS011;8331;51.654;14.376;2023-07-16T07:17:13;2.80;;;2.60;;
16442;SDS011;8331;51.654;14.376;2023-07-16T07:19:40;2.40;;;2.20;;
16442;SDS011;8331;51.654;14.376;2023-07-16T07:22:07;2.53;;;2.43;;
16442;SDS011;8331;51.654;14.376;2023-07-16T07:24:34;2.60;;;2.40;;
16442;SDS011;8331;51.654;14.376;2023-07-16T07:27:00;2.73;;;2.53;;
16442;SDS011;8331;51.654;14.376;2023-07-16T07:29:27;2.53;;;2.33;;
16442;SDS011;8331;51.654;14.376;2023-07-16T07:31:54;2.87;;;2.50;;
16442;SDS011;8331;51.654;14.376;2023-07-16T07:34:20;2.90;;;2.60;;
16442;SDS011;8331;51.654;14.376;2023-07-16T07:36:47;2.40;;;2.30;;
16442;SDS011;8331;51.654;14.376;2023-07-16T07:39:13;2.73;;;2.30;;
16442;SDS011;8331;51.654;14.376;2023-07-16T07:41:40;4.03;;;2.27;;
16442;SDS011;8331;51.654;14.376;2023-07-16T07:44:07;2.70;;;2.50;;
16442;SDS011;8331;51.654;14.376;2023-07-16T07:46:33;3.50;;;2.60;;
16442;SDS011;8331;51.654;14.376;2023-07-16T07:49:00;2.67;;;2.57;;
16442;SDS011;8331;51.654;14.376;2023-07-16T07:51:27;3.60;;;2.77;;
16442;SDS011;8331;51.654;14.376;2023-07-16T07:53:53;3.17;;;2.70;;
16442;SDS011;8331;51.654;14.376;2023-07-16T07:56:20;2.00;;;1.90;;
16442;SDS011;8331;51.654;14.376;2023-07-16T07:58:46;2.20;;;2.10;;
16442;SDS011;8331;51.654;14.376;2023-07-16T08:01:13;3.07;;;2.10;;
16442;SDS011;8331;51.654;14.376;2023-07-16T08:03:40;2.80;;;2.50;;
16442;SDS011;8331;51.654;14.376;2023-07-16T08:06:06;2.40;;;2.20;;
16442;SDS011;8331;51.654;14.376;2023-07-16T08:08:33;2.40;;;2.20;;
16442;SDS011;8331;51.654;14.376;2023-07-16T08:11:00;2.07;;;1.90;;
16442;SDS011;8331;51.654;14.376;2023-07-16T08:13:26;2.37;;;2.20;;
16442;SDS011;8331;51.654;14.376;2023-07-16T08:15:53;2.20;;;2.10;;
16442;SDS011;8331;51.654;14.376;2023-07-16T08:18:20;2.67;;;2.40;;
16442;SDS011;8331;51.654;14.376;2023-07-16T08:20:46;2.40;;;2.30;;
16442;SDS011;8331;51.654;14.376;2023-07-16T08:23:13;2.23;;;2.10;;
16442;SDS011;8331;51.654;14.376;2023-07-16T08:25:40;2.17;;;2.07;;
16442;SDS011;8331;51.654;14.376;2023-07-16T08:28:07;2.37;;;2.17;;
16442;SDS011;8331;51.654;14.376;2023-07-16T08:30:34;2.20;;;2.10;;
16442;SDS011;8331;51.654;14.376;2023-07-16T08:33:01;2.33;;;2.13;;
16442;SDS011;8331;51.654;14.376;2023-07-16T08:35:27;3.27;;;1.90;;
16442;SDS011;8331;51.654;14.376;2023-07-16T08:37:54;2.10;;;2.00;;
16442;SDS011;8331;51.654;14.376;2023-07-16T08:40:21;2.03;;;1.90;;
16442;SDS011;8331;51.654;14.376;2023-07-16T08:42:47;2.03;;;1.93;;
16442;SDS011;8331;51.654;14.376;2023-07-16T08:45:15;1.93;;;1.83;;
16442;SDS011;8331;51.654;14.376;2023-07-16T08:47:42;2.13;;;2.03;;
16442;SDS011;8331;51.654;14.376;2023-07-16T08:50:09;2.03;;;1.93;;
16442;SDS011;8331;51.654;14.376;2023-07-16T08:52:37;2.23;;;2.00;;
16442;SDS011;8331;51.654;14.376;2023-07-16T08:55:04;1.77;;;1.67;;
16442;SDS011;8331;51.654;14.376;2023-07-16T08:57:30;2.30;;;2.10;;
16442;SDS011;8331;51.654;14.376;2023-07-16T08:59:57;4.33;;;2.00;;
16442;SDS011;8331;51.654;14.376;2023-07-16T09:02:24;2.17;;;1.80;;
16442;SDS011;8331;51.654;14.376;2023-07-16T09:04:51;2.20;;;2.00;;
16442;SDS011;8331;51.654;14.376;2023-07-16T09:07:18;3.00;;;1.80;;
16442;SDS011;8331;51.654;14.376;2023-07-16T09:09:55;2.10;;;1.90;;
16442;SDS011;8331;51.654;14.376;2023-07-16T09:12:24;1.80;;;1.70;;
16442;SDS011;8331;51.654;14.376;2023-07-16T09:14:51;2.17;;;2.00;;
16442;SDS011;8331;51.654;14.376;2023-07-16T09:17:21;3.70;;;1.80;;
16442;SDS011;8331;51.654;14.376;2023-07-16T09:19:50;1.80;;;1.70;;
16442;SDS011;8331;51.654;14.376;2023-07-16T09:22:17;2.10;;;2.00;;
16442;SDS011;8331;51.654;14.376;2023-07-16T09:24:44;2.13;;;1.93;;
16442;SDS011;8331;51.654;14.376;2023-07-16T09:27:11;1.90;;;1.80;;
16442;SDS011;8331;51.654;14.376;2023-07-16T09:29:38;2.20;;;1.97;;
16442;SDS011;8331;51.654;14.376;2023-07-16T09:32:05;1.73;;;1.63;;
16442;SDS011;8331;51.654;14.376;2023-07-16T09:34:32;1.60;;;1.50;;
16442;SDS011;8331;51.654;14.376;2023-07-16T09:36:59;2.43;;;1.70;;
16442;SDS011;8331;51.654;14.376;2023-07-16T09:39:26;2.93;;;1.90;;
16442;SDS011;8331;51.654;14.376;2023-07-16T09:41:53;2.40;;;1.90;;
16442;SDS011;8331;51.654;14.376;2023-07-16T09:44:20;1.63;;;1.53;;
16442;SDS011;8331;51.654;14.376;2023-07-16T09:46:47;3.23;;;1.60;;
16442;SDS011;8331;51.654;14.376;2023-07-16T09:49:14;2.23;;;1.70;;
16442;SDS011;8331;51.654;14.376;2023-07-16T09:51:41;3.93;;;1.97;;
16442;SDS011;8331;51.654;14.376;2023-07-16T09:54:09;2.70;;;1.80;;
16442;SDS011;8331;51.654;14.376;2023-07-16T09:56:40;1.70;;;1.60;;
16442;SDS011;8331;51.654;14.376;2023-07-16T09:59:17;2.37;;;1.67;;
16442;SDS011;8331;51.654;14.376;2023-07-16T10:01:46;3.13;;;1.60;;
16442;SDS011;8331;51.654;14.376;2023-07-16T10:06:59;3.03;;;1.60;;
16442;SDS011;8331;51.654;14.376;2023-07-16T10:09:42;4.17;;;1.83;;
16442;SDS011;8331;51.654;14.376;2023-07-16T10:12:17;3.03;;;1.70;;
16442;SDS011;8331;51.654;14.376;2023-07-16T10:14:49;1.53;;;1.40;;
16442;SDS011;8331;51.654;14.376;2023-07-16T10:17:16;2.50;;;1.70;;
16442;SDS011;8331;51.654;14.376;2023-07-16T10:19:50;2.27;;;1.70;;
16442;SDS011;8331;51.654;14.376;2023-07-16T10:22:18;2.38;;;1.40;;
16442;SDS011;8331;51.654;14.376;2023-07-16T10:24:50;3.42;;;1.50;;
16442;SDS011;8331;51.654;14.376;2023-07-16T10:27:25;2.22;;;1.63;;
16442;SDS011;8331;51.654;14.376;2023-07-16T10:29:52;1.65;;;1.55;;
16442;SDS011;8331;51.654;14.376;2023-07-16T10:32:21;1.98;;;1.33;;
16442;SDS011;8331;51.654;14.376;2023-07-16T10:34:48;4.20;;;1.90;;
16442;SDS011;8331;51.654;14.376;2023-07-16T10:37:14;3.80;;;1.63;;
16442;SDS011;8331;51.654;14.376;2023-07-16T10:39:54;3.17;;;1.73;;
16442;SDS011;8331;51.654;14.376;2023-07-16T10:42:22;2.47;;;1.83;;
16442;SDS011;8331;51.654;14.376;2023-07-16T10:44:49;2.67;;;1.70;;
16442;SDS011;8331;51.654;14.376;2023-07-16T10:47:18;1.55;;;1.45;;
16442;SDS011;8331;51.654;14.376;2023-07-16T10:49:46;2.65;;;1.60;;
16442;SDS011;8331;51.654;14.376;2023-07-16T10:52:13;2.08;;;1.60;;
16442;SDS011;8331;51.654;14.376;2023-07-16T10:54:40;3.10;;;1.50;;
16442;SDS011;8331;51.654;14.376;2023-07-16T10:57:06;2.22;;;1.70;;
16442;SDS011;8331;51.654;14.376;2023-07-16T10:59:33;12.73;;;2.13;;
16442;SDS011;8331;51.654;14.376;2023-07-16T11:02:00;1.67;;;1.58;;
16442;SDS011;8331;51.654;14.376;2023-07-16T11:04:26;2.30;;;1.70;;
16442;SDS011;8331;51.654;14.376;2023-07-16T11:06:59;4.10;;;1.90;;
16442;SDS011;8331;51.654;14.376;2023-07-16T11:09:26;1.63;;;1.52;;
16442;SDS011;8331;51.654;14.376;2023-07-16T11:11:52;2.78;;;1.90;;
16442;SDS011;8331;51.654;14.376;2023-07-16T11:14:19;3.20;;;1.77;;
16442;SDS011;8331;51.654;14.376;2023-07-16T11:16:45;1.73;;;1.53;;
16442;SDS011;8331;51.654;14.376;2023-07-16T11:19:13;3.30;;;2.03;;
16442;SDS011;8331;51.654;14.376;2023-07-16T11:21:40;2.70;;;1.63;;
16442;SDS011;8331;51.654;14.376;2023-07-16T11:24:07;1.87;;;1.70;;
16442;SDS011;8331;51.654;14.376;2023-07-16T11:26:33;1.70;;;1.50;;
16442;SDS011;8331;51.654;14.376;2023-07-16T11:29:00;3.90;;;1.60;;
16442;SDS011;8331;51.654;14.376;2023-07-16T11:31:27;3.60;;;1.90;;
16442;SDS011;8331;51.654;14.376;2023-07-16T11:33:53;3.13;;;1.73;;
16442;SDS011;8331;51.654;14.376;2023-07-16T11:36:28;1.90;;;1.70;;
16442;SDS011;8331;51.654;14.376;2023-07-16T11:38:54;1.83;;;1.73;;
16442;SDS011;8331;51.654;14.376;2023-07-16T11:41:21;2.25;;;1.92;;
16442;SDS011;8331;51.654;14.376;2023-07-16T11:43:48;2.85;;;2.42;;
16442;SDS011;8331;51.654;14.376;2023-07-16T11:46:15;3.08;;;1.90;;
16442;SDS011;8331;51.654;14.376;2023-07-16T11:48:44;3.00;;;1.90;;
16442;SDS011;8331;51.654;14.376;2023-07-16T11:51:10;3.65;;;2.28;;
16442;SDS011;8331;51.654;14.376;2023-07-16T11:53:37;2.28;;;2.08;;
16442;SDS011;8331;51.654;14.376;2023-07-16T11:56:05;2.47;;;1.80;;
16442;SDS011;8331;51.654;14.376;2023-07-16T11:58:32;1.98;;;1.83;;
16442;SDS011;8331;51.654;14.376;2023-07-16T12:00:58;1.92;;;1.80;;
16442;SDS011;8331;51.654;14.376;2023-07-16T12:03:25;1.83;;;1.73;;
16442;SDS011;8331;51.654;14.376;2023-07-16T12:05:52;3.17;;;2.20;;
16442;SDS011;8331;51.654;14.376;2023-07-16T12:08:19;3.78;;;1.77;;
16442;SDS011;8331;51.654;14.376;2023-07-16T12:10:46;3.17;;;1.80;;
16442;SDS011;8331;51.654;14.376;2023-07-16T12:13:13;2.08;;;1.98;;
16442;SDS011;8331;51.654;14.376;2023-07-16T12:15:39;3.97;;;1.92;;
16442;SDS011;8331;51.654;14.376;2023-07-16T12:18:06;3.20;;;2.13;;
16442;SDS011;8331;51.654;14.376;2023-07-16T12:20:35;3.55;;;1.77;;
16442;SDS011;8331;51.654;14.376;2023-07-16T12:23:06;2.78;;;2.03;;
16442;SDS011;8331;51.654;14.376;2023-07-16T12:25:33;3.10;;;2.15;;
16442;SDS011;8331;51.654;14.376;2023-07-16T12:28:00;4.05;;;2.17;;
16442;SDS011;8331;51.654;14.376;2023-07-16T12:30:28;3.25;;;2.00;;
16442;SDS011;8331;51.654;14.376;2023-07-16T12:32:54;2.63;;;2.00;;
16442;SDS011;8331;51.654;14.376;2023-07-16T12:35:21;3.67;;;2.00;;
16442;SDS011;8331;51.654;14.376;2023-07-16T12:37:48;2.17;;;1.98;;
16442;SDS011;8331;51.654;14.376;2023-07-16T12:40:15;2.22;;;2.03;;
16442;SDS011;8331;51.654;14.376;2023-07-16T12:42:43;2.20;;;1.95;;
16442;SDS011;8331;51.654;14.376;2023-07-16T12:45:10;3.00;;;2.10;;
16442;SDS011;8331;51.654;14.376;2023-07-16T12:47:36;3.17;;;2.13;;
16442;SDS011;8331;51.654;14.376;2023-07-16T12:50:05;2.67;;;2.28;;
16442;SDS011;8331;51.654;14.376;2023-07-16T12:52:33;2.63;;;2.42;;
16442;SDS011;8331;51.654;14.376;2023-07-16T12:55:00;3.33;;;2.45;;
16442;SDS011;8331;51.654;14.376;2023-07-16T12:57:26;3.20;;;2.30;;
16442;SDS011;8331;51.654;14.376;2023-07-16T12:59:53;2.20;;;2.00;;
16442;SDS011;8331;51.654;14.376;2023-07-16T13:02:20;2.45;;;2.00;;
16442;SDS011;8331;51.654;14.376;2023-07-16T13:04:46;2.35;;;2.15;;
16442;SDS011;8331;51.654;14.376;2023-07-16T13:07:13;3.05;;;2.08;;
16442;SDS011;8331;51.654;14.376;2023-07-16T13:09:40;2.15;;;1.95;;
16442;SDS011;8331;51.654;14.376;2023-07-16T13:12:06;2.60;;;2.40;;
16442;SDS011;8331;51.654;14.376;2023-07-16T13:14:33;2.53;;;2.20;;
16442;SDS011;8331;51.654;14.376;2023-07-16T13:17:00;2.40;;;2.20;;
16442;SDS011;8331;51.654;14.376;2023-07-16T13:19:28;3.38;;;2.20;;
16442;SDS011;8331;51.654;14.376;2023-07-16T13:21:54;2.22;;;2.03;;
16442;SDS011;8331;51.654;14.376;2023-07-16T13:24:21;3.05;;;2.15;;
16442;SDS011;8331;51.654;14.376;2023-07-16T13:26:47;3.63;;;2.03;;
16442;SDS011;8331;51.654;14.376;2023-07-16T13:29:14;4.28;;;2.30;;
16442;SDS011;8331;51.654;14.376;2023-07-16T13:31:41;3.63;;;2.30;;
16442;SDS011;8331;51.654;14.376;2023-07-16T13:34:07;4.10;;;2.72;;
16442;SDS011;8331;51.654;14.376;2023-07-16T13:36:34;2.47;;;2.20;;
16442;SDS011;8331;51.654;14.376;2023-07-16T13:39:01;1.98;;;1.83;;
16442;SDS011;8331;51.654;14.376;2023-07-16T13:41:30;1.70;;;1.60;;
16442;SDS011;8331;51.654;14.376;2023-07-16T13:43:57;2.40;;;2.20;;
16442;SDS011;8331;51.654;14.376;2023-07-16T13:46:24;1.83;;;1.73;;
16442;SDS011;8331;51.654;14.376;2023-07-16T13:48:51;2.35;;;1.98;;
16442;SDS011;8331;51.654;14.376;2023-07-16T13:51:24;3.25;;;2.00;;
16442;SDS011;8331;51.654;14.376;2023-07-16T13:53:51;2.33;;;2.00;;
16442;SDS011;8331;51.654;14.376;2023-07-16T13:56:18;4.35;;;2.08;;
16442;SDS011;8331;51.654;14.376;2023-07-16T13:58:45;3.88;;;2.35;;
16442;SDS011;8331;51.654;14.376;2023-07-16T14:01:12;2.47;;;2.00;;
16442;SDS011;8331;51.654;14.376;2023-07-16T14:03:38;2.70;;;2.42;;
16442;SDS011;8331;51.654;14.376;2023-07-16T14:06:05;2.75;;;2.00;;
16442;SDS011;8331;51.654;14.376;2023-07-16T14:08:32;3.58;;;2.53;;
16442;SDS011;8331;51.654;14.376;2023-07-16T14:11:00;2.60;;;2.38;;
16442;SDS011;8331;51.654;14.376;2023-07-16T14:13:27;3.15;;;2.22;;
16442;SDS011;8331;51.654;14.376;2023-07-16T14:15:53;3.50;;;2.38;;
16442;SDS011;8331;51.654;14.376;2023-07-16T14:18:20;2.58;;;2.22;;
16442;SDS011;8331;51.654;14.376;2023-07-16T14:20:47;3.38;;;2.25;;
16442;SDS011;8331;51.654;14.376;2023-07-16T14:23:13;3.55;;;2.42;;
16442;SDS011;8331;51.654;14.376;2023-07-16T14:25:40;4.25;;;2.40;;
16442;SDS011;8331;51.654;14.376;2023-07-16T14:28:07;4.68;;;2.30;;
16442;SDS011;8331;51.654;14.376;2023-07-16T14:30:34;2.60;;;2.30;;
16442;SDS011;8331;51.654;14.376;2023-07-16T14:33:00;2.35;;;2.15;;
16442;SDS011;8331;51.654;14.376;2023-07-16T14:35:30;3.90;;;2.30;;
16442;SDS011;8331;51.654;14.376;2023-07-16T14:38:02;3.45;;;2.40;;
16442;SDS011;8331;51.654;14.376;2023-07-16T14:40:29;3.42;;;2.70;;
16442;SDS011;8331;51.654;14.376;2023-07-16T14:42:56;3.30;;;2.10;;
16442;SDS011;8331;51.654;14.376;2023-07-16T14:45:22;3.33;;;2.30;;
16442;SDS011;8331;51.654;14.376;2023-07-16T14:47:49;2.70;;;2.00;;
16442;SDS011;8331;51.654;14.376;2023-07-16T14:50:16;2.80;;;2.30;;
16442;SDS011;8331;51.654;14.376;2023-07-16T14:52:42;2.47;;;2.28;;
16442;SDS011;8331;51.654;14.376;2023-07-16T14:55:09;3.90;;;2.28;;
16442;SDS011;8331;51.654;14.376;2023-07-16T14:57:36;5.30;;;2.65;;